Time;durP1;ratioP1;P1;durP2;ratioP2;P2;SDS_P1;SDS_P2;PMS_P1;PMS_P2;Temp;Humidity;BMP_temperature;BMP_pressure;BME280_temperature;BME280_humidity;BME280_pressure;Samples;Min_cycle;Max_cycle;Signal;HPM_P1;HPM_P2
2022/12/08 00:02:05;;;;;;;5.93;2.03;;;1.90;99.90;;;;;;5016543;28;20046;-73
2022/12/08 00:09:20;;;;;;;7.68;2.53;;;1.90;99.90;;;;;;5017306;28;20119;-74
2022/12/08 00:10:06;;;;;;;11.02;3.63;;;1.90;99.90;;;;;;5016969;28;20053;-73
2022/12/08 00:12:31;;;;;;;9.32;2.58;;;2.00;99.90;;;;;;5017101;28;20120;-73
2022/12/08 00:14:57;;;;;;;7.90;2.40;;;2.00;99.90;;;;;;5017106;28;20494;-73
2022/12/08 00:17:26;;;;;;;12.15;2.30;;;2.10;99.90;;;;;;4999682;28;20049;-74
2022/12/08 00:19:51;;;;;;;9.75;2.72;;;2.20;99.90;;;;;;5005167;28;20107;-73
2022/12/08 00:22:17;;;;;;;7.93;2.72;;;2.30;99.90;;;;;;5016838;28;20421;-74
2022/12/08 00:24:44;;;;;;;9.73;2.70;;;3.00;99.90;;;;;;5016855;28;20042;-73
2022/12/08 00:27:12;;;;;;;9.48;2.65;;;2.90;99.90;;;;;;4999570;28;20042;-73
2022/12/08 00:29:37;;;;;;;8.35;2.72;;;2.40;99.90;;;;;;5017287;28;20060;-74
2022/12/08 00:32:03;;;;;;;16.25;2.97;;;2.40;99.90;;;;;;5017938;28;20042;-73
2022/12/08 00:34:30;;;;;;;8.55;2.45;;;2.50;99.90;;;;;;5035343;28;20037;-73
2022/12/08 00:36:56;;;;;;;6.82;2.50;;;2.50;99.90;;;;;;5036614;28;20112;-73
2022/12/08 00:39:22;;;;;;;9.55;2.65;;;2.50;99.90;;;;;;5031909;28;20116;-73
2022/12/08 00:44:31;;;;;;;8.13;2.60;;;2.60;99.90;;;;;;5016573;28;20046;-73
2022/12/08 00:46:57;;;;;;;9.48;2.58;;;2.60;99.90;;;;;;5017019;28;20161;-74
2022/12/08 00:49:26;;;;;;;13.65;3.33;;;2.60;99.90;;;;;;5035829;28;20049;-73
2022/12/08 00:51:52;;;;;;;9.20;2.65;;;2.60;99.90;;;;;;5036288;28;20121;-74
2022/12/08 00:54:18;;;;;;;10.30;3.15;;;2.60;99.90;;;;;;5028729;28;20185;-74
2022/12/08 00:56:43;;;;;;;12.32;3.20;;;2.50;99.90;;;;;;5016540;28;20042;-74
2022/12/08 00:59:09;;;;;;;11.38;3.35;;;2.50;99.90;;;;;;5016470;28;20469;-74
2022/12/08 01:01:35;;;;;;;9.55;3.30;;;2.50;99.90;;;;;;4998800;28;20121;-74
2022/12/08 01:04:09;;;;;;;13.02;3.20;;;2.50;99.90;;;;;;5016229;28;20097;-74
2022/12/08 01:06:35;;;;;;;9.43;2.67;;;2.50;99.90;;;;;;5016128;28;20076;-74
2022/12/08 01:09:02;;;;;;;5.03;2.13;;;2.50;99.90;;;;;;5015823;28;20073;-73
2022/12/08 01:11:28;;;;;;;13.85;2.90;;;2.50;99.90;;;;;;5016834;28;20073;-74
2022/12/08 01:13:53;;;;;;;10.82;2.35;;;2.50;99.90;;;;;;5027275;28;20085;-74
2022/12/08 01:16:25;;;;;;;7.32;2.35;;;2.50;99.90;;;;;;5015105;28;20058;-73
2022/12/08 01:18:50;;;;;;;10.35;2.22;;;2.50;99.90;;;;;;5016057;28;20469;-74
2022/12/08 01:21:19;;;;;;;7.57;2.08;;;2.50;99.90;;;;;;5015585;28;20052;-73
2022/12/08 01:23:45;;;;;;;7.80;2.00;;;2.40;99.90;;;;;;5016104;28;20074;-74
2022/12/08 01:26:12;;;;;;;8.70;2.20;;;2.50;99.90;;;;;;5015413;28;20069;-74
2022/12/08 01:28:39;;;;;;;6.72;2.03;;;2.50;99.90;;;;;;5026025;28;20069;-74
2022/12/08 01:31:12;;;;;;;7.32;2.13;;;2.50;99.90;;;;;;4998493;28;20065;-73
2022/12/08 01:33:38;;;;;;;;;;;2.50;99.90;;;;;;5016286;28;20120;-73
2022/12/08 01:36:04;;;;;;;5.40;1.63;;;2.50;99.90;;;;;;5015610;28;19918;-73
2022/12/08 01:38:31;;;;;;;3.53;1.73;;;2.60;99.90;;;;;;5009535;28;20117;-74
2022/12/08 01:40:57;;;;;;;5.38;1.67;;;2.60;99.90;;;;;;5018405;28;20070;-74
2022/12/08 01:43:22;;;;;;;6.07;1.60;;;2.60;99.90;;;;;;5014523;28;20053;-73
2022/12/08 01:45:48;;;;;;;4.15;1.40;;;2.50;99.90;;;;;;5014406;28;20038;-73
2022/12/08 01:48:21;;;;;;;3.10;1.20;;;2.50;99.90;;;;;;5015209;28;20465;-74
2022/12/08 01:50:52;;;;;;;8.35;1.73;;;2.50;99.90;;;;;;4998086;28;20111;-73
2022/12/08 01:53:23;;;;;;;8.15;1.60;;;2.40;99.90;;;;;;5015241;28;20446;-73
2022/12/08 01:56:01;;;;;;;2.92;1.30;;;2.40;99.90;;;;;;5016122;28;20135;-74
2022/12/08 01:58:28;;;;;;;4.93;1.58;;;2.40;99.90;;;;;;5020455;28;20069;-74
2022/12/08 02:01:00;;;;;;;3.85;1.45;;;2.40;99.90;;;;;;5015172;28;20045;-73
2022/12/08 02:03:55;;;;;;;6.55;1.83;;;2.40;99.90;;;;;;5015153;28;20034;-74
2022/12/08 02:06:21;;;;;;;6.00;1.60;;;2.40;99.90;;;;;;5008841;28;20088;-73
2022/12/08 02:08:48;;;;;;;3.90;1.45;;;2.30;99.90;;;;;;5015210;28;20080;-74
2022/12/08 02:11:14;;;;;;;5.22;2.05;;;2.30;99.90;;;;;;5022460;28;20377;-73
2022/12/08 02:13:44;;;;;;;3.42;1.60;;;2.30;99.90;;;;;;5014260;28;20077;-73
2022/12/08 02:16:34;;;;;;;4.22;1.50;;;2.30;99.90;;;;;;5015242;28;20122;-74
2022/12/08 02:19:27;;;;;;;5.43;1.70;;;2.30;99.90;;;;;;5010509;28;20358;-73
2022/12/08 02:22:05;;;;;;;4.28;1.48;;;2.30;99.90;;;;;;5015167;28;20053;-73
2022/12/08 02:24:49;;;;;;;4.53;1.55;;;2.30;99.90;;;;;;5014867;28;20092;-74
2022/12/08 02:27:32;;;;;;;4.78;1.75;;;2.40;99.90;;;;;;5015223;28;20033;-73
2022/12/08 02:30:03;;;;;;;6.72;1.85;;;2.40;99.90;;;;;;5015083;28;20133;-73
2022/12/08 02:33:00;;;;;;;3.03;1.60;;;2.40;99.90;;;;;;5019958;28;20037;-73
2022/12/08 02:35:44;;;;;;;5.72;2.03;;;2.40;99.90;;;;;;5026353;28;20104;-73
2022/12/08 02:38:30;;;;;;;6.25;1.95;;;2.40;99.90;;;;;;5023058;28;20080;-73
2022/12/08 02:41:11;;;;;;;4.00;1.50;;;2.40;99.90;;;;;;5017028;28;20095;-73
2022/12/08 02:44:18;;;;;;;5.50;1.75;;;2.40;99.90;;;;;;5014457;28;20099;-73
2022/12/08 02:46:57;;;;;;;5.88;1.75;;;2.40;99.90;;;;;;4973497;28;20109;-73
2022/12/08 02:49:28;;;;;;;4.55;1.80;;;2.40;99.90;;;;;;5029864;28;20129;-73
2022/12/08 02:52:12;;;;;;;5.10;1.70;;;2.50;99.90;;;;;;5034717;28;20056;-73
2022/12/08 02:54:48;;;;;;;6.78;2.00;;;2.50;99.90;;;;;;5035731;28;20053;-74
2022/12/08 02:57:42;;;;;;;3.67;1.70;;;2.50;99.90;;;;;;5034438;28;20037;-73
2022/12/08 03:00:10;;;;;;;;;;;2.60;99.90;;;;;;5034904;28;20081;-73
2022/12/08 03:02:47;;;;;;;8.80;2.15;;;2.60;99.90;;;;;;5034628;28;19968;-74
2022/12/08 03:05:33;;;;;;;7.95;1.73;;;2.60;99.90;;;;;;5034464;28;20357;-73
2022/12/08 03:08:17;;;;;;;5.63;1.77;;;2.60;99.90;;;;;;5000358;28;20045;-73
2022/12/08 03:10:51;;;;;;;;;;;2.60;99.90;;;;;;5035108;28;20041;-73
2022/12/08 03:13:22;;;;;;;3.83;1.50;;;2.60;99.90;;;;;;5033803;28;20349;-74
2022/12/08 03:15:51;;;;;;;5.72;1.35;;;2.60;99.90;;;;;;5034586;28;20357;-73
2022/12/08 03:18:22;;;;;;;8.60;1.60;;;2.60;99.90;;;;;;5034276;28;20049;-73
2022/12/08 03:20:49;;;;;;;3.60;1.40;;;2.70;99.90;;;;;;5034375;28;20357;-74
2022/12/08 03:23:20;;;;;;;6.40;1.65;;;2.60;99.90;;;;;;5034256;28;20041;-73
2022/12/08 03:26:27;;;;;;;4.80;1.55;;;2.60;99.90;;;;;;5035863;28;20056;-73
2022/12/08 03:28:53;;;;;;;4.32;1.38;;;2.60;99.90;;;;;;5038339;28;20041;-74
2022/12/08 03:31:20;;;;;;;4.65;1.10;;;2.60;99.90;;;;;;5038241;28;20045;-73
2022/12/08 03:33:50;;;;;;;4.40;1.35;;;2.60;99.90;;;;;;5038189;28;20049;-74
2022/12/08 03:36:19;;;;;;;5.00;1.60;;;2.60;99.90;;;;;;5038325;28;20096;-73
2022/12/08 03:38:48;;;;;;;8.45;1.45;;;2.60;99.90;;;;;;5037984;28;20461;-73
2022/12/08 03:41:17;;;;;;;6.53;1.20;;;2.60;99.90;;;;;;5037802;28;20038;-73
2022/12/08 03:43:53;;;;;;;10.02;1.48;;;2.60;99.90;;;;;;5037739;28;20033;-74
2022/12/08 03:46:20;;;;;;;4.75;1.40;;;2.60;99.90;;;;;;5037698;28;20080;-73
2022/12/08 03:48:47;;;;;;;4.03;1.42;;;2.50;99.90;;;;;;5019736;28;20053;-74
2022/12/08 03:51:13;;;;;;;4.72;1.33;;;2.50;99.90;;;;;;5020131;28;20061;-74
2022/12/08 03:53:39;;;;;;;6.80;1.13;;;2.50;99.90;;;;;;5037357;28;20033;-75
2022/12/08 03:56:26;;;;;;;6.65;1.42;;;2.40;99.90;;;;;;5037092;28;20033;-73
2022/12/08 03:58:52;;;;;;;7.10;1.30;;;2.30;99.90;;;;;;5020028;28;20081;-73
2022/12/08 04:01:18;;;;;;;4.30;1.08;;;2.30;99.90;;;;;;5037135;28;20045;-73
2022/12/08 04:03:44;;;;;;;3.58;1.00;;;2.60;99.90;;;;;;5037392;28;20060;-73
2022/12/08 04:06:09;;;;;;;2.67;1.13;;;2.30;99.90;;;;;;5037168;28;20049;-74
2022/12/08 04:08:35;;;;;;;2.25;1.08;;;2.30;99.90;;;;;;5037304;28;20087;-73
2022/12/08 04:11:01;;;;;;;3.22;1.10;;;2.30;99.90;;;;;;5036958;28;20523;-73
2022/12/08 04:13:26;;;;;;;2.25;0.90;;;2.30;99.90;;;;;;5037174;28;20484;-74
2022/12/08 04:15:52;;;;;;;3.00;1.00;;;2.30;99.90;;;;;;5037274;28;20072;-73
2022/12/08 04:18:18;;;;;;;4.15;1.10;;;2.70;99.90;;;;;;5037315;28;20038;-73
2022/12/08 04:20:44;;;;;;;4.13;1.00;;;2.30;99.90;;;;;;5036973;28;20107;-73
2022/12/08 04:23:10;;;;;;;3.38;0.90;;;2.40;99.90;;;;;;5037141;28;20037;-73
2022/12/08 04:25:36;;;;;;;4.78;1.42;;;2.20;99.90;;;;;;5034748;28;20038;-74
2022/12/08 04:28:03;;;;;;;3.78;1.10;;;2.20;99.90;;;;;;5036900;28;20103;-73
2022/12/08 04:30:29;;;;;;;4.38;1.40;;;2.20;99.90;;;;;;5037174;28;20322;-73
2022/12/08 04:32:55;;;;;;;4.65;1.10;;;2.20;99.90;;;;;;5036874;28;20037;-73
2022/12/08 04:35:20;;;;;;;2.53;1.55;;;2.20;99.90;;;;;;5036788;28;20091;-73
2022/12/08 04:37:49;;;;;;;5.78;1.50;;;2.80;99.90;;;;;;5035960;28;20045;-73
2022/12/08 04:40:15;;;;;;;6.35;1.40;;;2.20;99.90;;;;;;5036478;28;20056;-73
2022/12/08 04:42:41;;;;;;;3.40;1.10;;;2.20;99.90;;;;;;5036618;28;20361;-74
2022/12/08 04:45:07;;;;;;;3.60;1.10;;;2.20;99.90;;;;;;5018981;28;20051;-73
2022/12/08 04:47:33;;;;;;;4.10;1.30;;;2.30;99.90;;;;;;5036707;28;20120;-74
2022/12/08 04:49:58;;;;;;;6.72;1.30;;;2.30;99.90;;;;;;5018565;28;20101;-73
2022/12/08 04:52:24;;;;;;;3.08;1.20;;;2.30;99.90;;;;;;5036897;28;20441;-73
2022/12/08 04:54:50;;;;;;;2.20;1.10;;;2.30;99.90;;;;;;5036159;28;20025;-73
2022/12/08 04:57:18;;;;;;;3.90;1.30;;;2.30;99.90;;;;;;5036528;28;20401;-71
2022/12/08 04:59:44;;;;;;;2.10;1.10;;;2.20;99.90;;;;;;5036516;28;20123;-73
2022/12/08 05:02:10;;;;;;;3.05;1.30;;;2.30;99.90;;;;;;5036169;28;20045;-73
2022/12/08 05:04:35;;;;;;;3.42;1.10;;;2.30;99.90;;;;;;5036101;28;20052;-74
2022/12/08 05:07:01;;;;;;;5.00;1.17;;;2.30;99.90;;;;;;5036205;28;20068;-73
2022/12/08 05:09:27;;;;;;;4.57;1.30;;;2.30;99.90;;;;;;5035980;28;20041;-73
2022/12/08 05:11:52;;;;;;;6.60;1.52;;;2.30;99.90;;;;;;5036096;28;20055;-73
2022/12/08 05:14:18;;;;;;;4.03;1.42;;;2.30;99.90;;;;;;5018553;28;20053;-73
2022/12/08 05:16:45;;;;;;;2.60;1.13;;;2.30;99.90;;;;;;5036043;28;20500;-73
2022/12/08 05:19:11;;;;;;;5.03;1.13;;;2.30;99.90;;;;;;5035931;28;20045;-73
2022/12/08 05:21:37;;;;;;;2.83;1.00;;;2.30;99.90;;;;;;5036007;28;20045;-73
2022/12/08 05:24:03;;;;;;;2.63;1.20;;;2.30;99.90;;;;;;5035950;28;20438;-73
2022/12/08 05:26:29;;;;;;;2.38;1.17;;;2.30;99.90;;;;;;5035573;28;20033;-74
2022/12/08 05:28:55;;;;;;;3.65;1.20;;;2.40;99.90;;;;;;5037301;28;20461;-74
2022/12/08 05:31:27;;;;;;;2.92;1.30;;;2.40;99.90;;;;;;5034876;28;20103;-73
2022/12/08 05:33:53;;;;;;;3.33;1.23;;;2.50;99.90;;;;;;5035343;28;20048;-73
2022/12/08 05:36:19;;;;;;;3.65;1.20;;;2.40;99.90;;;;;;5035263;28;20041;-72
2022/12/08 05:38:45;;;;;;;4.10;1.20;;;2.40;99.90;;;;;;5035761;28;20045;-73
2022/12/08 05:41:17;;;;;;;3.28;1.25;;;2.40;99.90;;;;;;5035256;28;20049;-73
2022/12/08 05:43:42;;;;;;;3.92;1.17;;;2.40;99.90;;;;;;5035445;28;20033;-73
2022/12/08 05:46:08;;;;;;;2.58;1.15;;;2.40;99.90;;;;;;5035058;28;20045;-72
2022/12/08 05:48:34;;;;;;;4.03;1.50;;;2.40;99.90;;;;;;5017539;28;20374;-72
2022/12/08 05:51:00;;;;;;;6.72;1.52;;;2.30;99.90;;;;;;5034931;28;20112;-72
2022/12/08 05:53:26;;;;;;;5.72;1.60;;;2.30;99.90;;;;;;5035357;28;20099;-70
2022/12/08 05:55:52;;;;;;;5.07;1.30;;;2.20;99.90;;;;;;5031507;28;20649;-73
2022/12/08 05:58:19;;;;;;;5.63;1.83;;;2.30;99.90;;;;;;5040277;28;20076;-72
2022/12/08 06:00:46;;;;;;;4.15;1.40;;;2.30;99.90;;;;;;5034688;28;20061;-72
2022/12/08 06:03:14;;;;;;;4.13;1.70;;;2.30;99.90;;;;;;5034821;28;20037;-72
2022/12/08 06:05:41;;;;;;;5.40;1.50;;;2.30;99.90;;;;;;5033715;28;20041;-71
2022/12/08 06:08:07;;;;;;;4.82;1.45;;;2.30;99.90;;;;;;5034915;28;20069;-71
2022/12/08 06:10:33;;;;;;;2.90;1.30;;;2.30;99.90;;;;;;5034520;28;20056;-71
2022/12/08 06:12:58;;;;;;;2.90;1.38;;;2.30;99.90;;;;;;5034988;28;20033;-70
2022/12/08 06:15:27;;;;;;;3.80;1.25;;;2.20;99.90;;;;;;5033910;28;20045;-71
2022/12/08 06:17:52;;;;;;;4.40;1.40;;;2.20;99.90;;;;;;5034015;28;20167;-71
2022/12/08 06:20:18;;;;;;;4.25;1.55;;;2.30;99.90;;;;;;5033818;28;20052;-71
2022/12/08 06:22:43;;;;;;;5.40;1.70;;;2.30;99.90;;;;;;5027651;28;20516;-71
2022/12/08 06:25:09;;;;;;;5.53;1.58;;;2.20;99.90;;;;;;5033872;28;20138;-71
2022/12/08 06:27:35;;;;;;;3.58;1.40;;;2.10;99.90;;;;;;5034717;28;20038;-71
2022/12/08 06:30:00;;;;;;;4.35;1.55;;;2.10;99.90;;;;;;5034361;28;20045;-71
2022/12/08 06:32:26;;;;;;;3.90;1.52;;;2.10;99.90;;;;;;5034260;28;20042;-71
2022/12/08 06:34:52;;;;;;;3.60;1.38;;;2.10;99.90;;;;;;5033705;28;20107;-71
2022/12/08 06:37:18;;;;;;;4.18;1.38;;;2.10;99.90;;;;;;5034504;28;20037;-71
2022/12/08 06:39:43;;;;;;;5.22;1.30;;;2.10;99.90;;;;;;5018472;28;20073;-70
2022/12/08 06:44:53;;;;;;;7.50;1.70;;;2.00;99.90;;;;;;5042607;28;20056;-71
2022/12/08 06:47:20;;;;;;;3.53;1.40;;;2.20;99.90;;;;;;5041752;28;20051;-70
2022/12/08 06:49:49;;;;;;;4.90;1.25;;;2.00;99.90;;;;;;5041286;28;20093;-69
2022/12/08 06:52:14;;;;;;;3.13;1.30;;;2.00;99.90;;;;;;5041072;28;20357;-70
2022/12/08 06:54:40;;;;;;;3.88;1.55;;;2.00;99.90;;;;;;5042826;28;20048;-71
2022/12/08 06:57:06;;;;;;;5.03;1.50;;;1.90;99.90;;;;;;5040279;28;20055;-70
2022/12/08 06:59:31;;;;;;;3.63;1.52;;;1.90;99.90;;;;;;5042179;28;20044;-74
2022/12/08 07:01:57;;;;;;;4.10;1.48;;;1.90;99.90;;;;;;5040129;28;20073;-73
2022/12/08 07:04:25;;;;;;;40.15;3.67;;;1.90;99.90;;;;;;5026820;28;20045;-72
2022/12/08 07:06:51;;;;;;;7.18;1.90;;;1.80;99.90;;;;;;5038355;28;20064;-73
2022/12/08 07:09:19;;;;;;;5.47;1.80;;;1.70;99.90;;;;;;5043837;28;20096;-72
2022/12/08 07:11:45;;;;;;;6.35;1.77;;;1.60;99.90;;;;;;5035807;28;20037;-71
2022/12/08 07:14:11;;;;;;;11.68;2.05;;;1.50;99.90;;;;;;5036901;28;20438;-71
2022/12/08 07:16:38;;;;;;;3.63;1.65;;;1.50;99.90;;;;;;5028326;28;20144;-71
2022/12/08 07:19:04;;;;;;;4.78;2.03;;;1.40;99.90;;;;;;5038240;28;20107;-72
2022/12/08 07:21:30;;;;;;;5.63;2.40;;;1.40;99.90;;;;;;5037010;28;20038;-72
2022/12/08 07:23:55;;;;;;;5.47;2.47;;;1.30;99.90;;;;;;5036881;28;20124;-71
2022/12/08 07:26:21;;;;;;;4.60;2.50;;;1.30;99.90;;;;;;5036881;28;20077;-72
2022/12/08 07:28:46;;;;;;;3.67;2.30;;;1.30;99.90;;;;;;5037422;28;20104;-70
2022/12/08 07:31:24;;;;;;;3.78;2.42;;;1.20;99.90;;;;;;5037214;28;20049;-71
2022/12/08 07:33:53;;;;;;;7.03;2.85;;;1.10;99.90;;;;;;5021819;28;20059;-72
2022/12/08 07:36:18;;;;;;;6.50;3.10;;;1.10;99.90;;;;;;5036657;28;20124;-71
2022/12/08 07:38:44;;;;;;;6.82;3.13;;;1.00;99.90;;;;;;5036789;28;20044;-72
2022/12/08 07:41:18;;;;;;;7.97;3.35;;;1.00;99.90;;;;;;5036746;28;20456;-72
2022/12/08 07:43:44;;;;;;;7.35;3.75;;;1.00;99.90;;;;;;5036993;28;20037;-72
2022/12/08 07:46:15;;;;;;;7.30;2.85;;;0.90;99.90;;;;;;5037239;28;20057;-72
2022/12/08 07:48:45;;;;;;;10.35;4.07;;;0.90;99.90;;;;;;5019221;28;20179;-71
2022/12/08 07:51:12;;;;;;;9.82;4.38;;;0.90;99.90;;;;;;5037046;28;20120;-71
2022/12/08 07:53:39;;;;;;;9.98;4.40;;;0.90;99.90;;;;;;5036586;28;20049;-72
2022/12/08 07:56:06;;;;;;;8.68;4.80;;;0.90;99.90;;;;;;5036537;28;20052;-72
2022/12/08 07:58:31;;;;;;;10.15;4.25;;;0.90;99.90;;;;;;5037101;28;20037;-71
2022/12/08 08:00:57;;;;;;;6.50;3.90;;;0.80;99.90;;;;;;5035937;28;20190;-70
2022/12/08 08:03:22;;;;;;;9.57;3.70;;;0.80;99.90;;;;;;5036871;28;20275;-71
2022/12/08 08:05:48;;;;;;;7.70;4.18;;;0.80;99.90;;;;;;5037323;28;20037;-71
2022/12/08 08:08:15;;;;;;;7.80;4.50;;;0.70;99.90;;;;;;5036677;28;20534;-71
2022/12/08 08:10:40;;;;;;;9.07;5.05;;;0.80;99.90;;;;;;5036819;28;20041;-70
2022/12/08 08:13:07;;;;;;;8.77;4.50;;;0.80;99.90;;;;;;5036125;28;20041;-71
2022/12/08 08:15:33;;;;;;;10.32;4.30;;;0.80;99.90;;;;;;5002107;28;20069;-72
2022/12/08 08:17:58;;;;;;;5.63;4.03;;;0.80;99.90;;;;;;5013208;28;20143;-69
2022/12/08 08:20:26;;;;;;;11.90;4.80;;;0.70;99.90;;;;;;5035621;28;20116;-69
2022/12/08 08:22:52;;;;;;;7.47;4.38;;;1.70;99.90;;;;;;5036388;28;20045;-70
2022/12/08 08:25:21;;;;;;;9.98;4.10;;;0.70;99.90;;;;;;5034145;28;20121;-70
2022/12/08 08:27:47;;;;;;;13.27;4.93;;;0.70;99.90;;;;;;5036323;28;20033;-70
2022/12/08 08:30:14;;;;;;;8.90;4.47;;;0.60;99.90;;;;;;5036655;28;20103;-70
2022/12/08 08:32:40;;;;;;;8.52;3.90;;;0.60;99.90;;;;;;5036543;28;20112;-69
2022/12/08 08:35:05;;;;;;;7.65;4.20;;;0.60;99.90;;;;;;5036380;28;20115;-69
2022/12/08 08:37:31;;;;;;;10.43;4.43;;;0.60;99.90;;;;;;5018232;28;20469;-69
2022/12/08 08:39:57;;;;;;;7.90;4.38;;;0.60;99.90;;;;;;5036482;28;20065;-70
2022/12/08 08:42:22;;;;;;;7.53;3.80;;;0.60;99.90;;;;;;5035307;28;20037;-70
2022/12/08 08:44:48;;;;;;;10.80;4.95;;;0.60;99.90;;;;;;5035671;28;20033;-69
2022/12/08 08:47:14;;;;;;;13.43;5.15;;;0.60;99.90;;;;;;5018481;28;20045;-70
2022/12/08 08:49:40;;;;;;;12.75;4.82;;;0.60;99.90;;;;;;5035339;28;20144;-70
2022/12/08 08:52:05;;;;;;;19.25;11.52;;;0.60;99.90;;;;;;5035978;28;20131;-70
2022/12/08 08:54:32;;;;;;;15.95;9.65;;;0.60;99.90;;;;;;5018786;28;20434;-69
2022/12/08 08:56:59;;;;;;;16.02;8.60;;;0.70;99.90;;;;;;5036111;28;20445;-70
2022/12/08 08:59:27;;;;;;;17.63;8.75;;;0.80;99.90;;;;;;5035775;28;20041;-71
2022/12/08 09:01:56;;;;;;;17.23;5.60;;;1.00;99.90;;;;;;5035815;28;20360;-70
2022/12/08 09:04:25;;;;;;;11.30;5.20;;;1.20;99.90;;;;;;5035178;28;20042;-70
2022/12/08 09:06:51;;;;;;;8.23;4.70;;;1.30;99.90;;;;;;5035839;28;20041;-71
2022/12/08 09:09:20;;;;;;;11.07;4.00;;;1.40;99.90;;;;;;5035841;28;20056;-70
2022/12/08 09:11:45;;;;;;;10.65;4.28;;;1.50;99.90;;;;;;5035928;28;20056;-70
2022/12/08 09:14:14;;;;;;;10.13;4.28;;;1.50;99.90;;;;;;5035293;28;20038;-71
2022/12/08 09:16:40;;;;;;;11.98;4.45;;;1.50;99.90;;;;;;5035287;28;20408;-70
2022/12/08 09:19:06;;;;;;;7.18;4.45;;;1.50;99.90;;;;;;5020396;28;20068;-70
2022/12/08 09:21:32;;;;;;;14.65;4.65;;;1.50;99.90;;;;;;5015931;28;20450;-71
2022/12/08 09:23:58;;;;;;;12.77;4.05;;;1.90;99.90;;;;;;5034530;28;20377;-70
2022/12/08 09:26:25;;;;;;;9.75;4.22;;;1.50;99.90;;;;;;5034946;28;20048;-71
2022/12/08 09:28:52;;;;;;;7.88;4.40;;;1.50;99.90;;;;;;5035372;28;20048;-70
2022/12/08 09:31:20;;;;;;;14.45;4.68;;;1.60;99.90;;;;;;5001528;28;20112;-70
2022/12/08 09:33:47;;;;;;;10.85;4.55;;;1.70;99.90;;;;;;5035037;28;20042;-70
2022/12/08 09:36:12;;;;;;;13.95;5.25;;;1.80;99.90;;;;;;5034723;28;20045;-70
2022/12/08 09:38:39;;;;;;;18.10;7.78;;;1.90;99.90;;;;;;5035265;28;20046;-70
2022/12/08 09:41:19;;;;;;;9.73;5.10;;;2.00;99.90;;;;;;5034890;28;20352;-71
2022/12/08 09:44:15;;;;;;;9.70;4.10;;;2.10;99.90;;;;;;5017414;28;20136;-70
2022/12/08 09:46:42;;;;;;;7.93;4.00;;;2.30;99.90;;;;;;5035124;28;20314;-70
2022/12/08 09:49:15;;;;;;;11.20;5.07;;;2.50;99.90;;;;;;5034892;28;20064;-69
2022/12/08 09:51:43;;;;;;;8.33;3.67;;;2.50;99.90;;;;;;5034599;28;20467;-69
2022/12/08 09:54:38;;;;;;;8.82;3.72;;;2.60;99.90;;;;;;5035115;28;20037;-69
2022/12/08 09:57:14;;;;;;;7.32;3.17;;;2.70;99.90;;;;;;5022161;28;20242;-70
2022/12/08 09:59:45;;;;;;;8.77;4.00;;;2.80;99.90;;;;;;5034723;28;20060;-69
2022/12/08 10:02:26;;;;;;;10.73;4.22;;;2.80;99.90;;;;;;5034706;28;20040;-69
2022/12/08 10:04:54;;;;;;;7.45;4.22;;;2.80;99.90;;;;;;5016880;28;20045;-69
2022/12/08 10:07:31;;;;;;;12.02;5.53;;;2.80;99.90;;;;;;5034513;28;20457;-69
2022/12/08 10:10:21;;;;;;;11.02;4.70;;;2.90;99.90;;;;;;5034491;28;20073;-69
2022/12/08 10:13:02;;;;;;;10.45;4.70;;;2.90;99.90;;;;;;5017160;28;20052;-70
2022/12/08 10:15:33;;;;;;;14.73;5.00;;;2.20;99.90;;;;;;5034658;28;20045;-69
2022/12/08 10:18:08;;;;;;;12.68;4.50;;;3.00;99.90;;;;;;5034364;28;20484;-69
2022/12/08 10:20:40;;;;;;;11.43;4.25;;;3.10;99.90;;;;;;5034507;28;20056;-69
2022/12/08 10:23:12;;;;;;;9.73;4.20;;;3.20;99.90;;;;;;5034396;28;20222;-69
2022/12/08 10:25:45;;;;;;;9.02;3.50;;;3.20;99.90;;;;;;5021498;28;20077;-70
2022/12/08 10:28:11;;;;;;;10.82;3.80;;;3.30;99.90;;;;;;5034086;28;20091;-69
2022/12/08 10:30:37;;;;;;;8.65;3.90;;;3.30;99.90;;;;;;5034416;28;20492;-70
2022/12/08 10:33:03;;;;;;;10.38;4.53;;;3.30;99.90;;;;;;5017199;28;20120;-70
2022/12/08 10:35:50;;;;;;;8.95;4.00;;;3.40;99.90;;;;;;5035907;28;20048;-70
2022/12/08 10:38:36;;;;;;;10.07;3.40;;;3.40;99.90;;;;;;5020524;28;20341;-69
2022/12/08 10:41:08;;;;;;;5.30;2.70;;;3.50;99.90;;;;;;5027834;28;20045;-70
2022/12/08 10:43:56;;;;;;;8.68;2.80;;;3.50;99.90;;;;;;5037344;28;20489;-70
2022/12/08 10:46:26;;;;;;;11.73;3.08;;;3.60;99.90;;;;;;5007924;28;20141;-69
2022/12/08 10:49:10;;;;;;;11.02;2.80;;;3.80;99.90;;;;;;5034812;28;20453;-69
2022/12/08 10:51:38;;;;;;;8.98;3.08;;;3.90;99.90;;;;;;5038563;28;20049;-70
2022/12/08 10:54:05;;;;;;;6.75;2.67;;;4.00;99.90;;;;;;5020503;28;20125;-69
2022/12/08 10:56:32;;;;;;;7.40;3.30;;;4.10;99.90;;;;;;5038462;28;20361;-69
2022/12/08 10:59:12;;;;;;;8.10;2.60;;;4.30;99.90;;;;;;5037223;28;20037;-69
2022/12/08 11:01:39;;;;;;;7.07;2.28;;;4.40;99.90;;;;;;5018391;28;20377;-70
2022/12/08 11:04:18;;;;;;;11.07;2.45;;;4.40;99.90;;;;;;5037881;28;20400;-71
2022/12/08 11:06:45;;;;;;;12.65;2.65;;;4.40;99.90;;;;;;5038177;28;20038;-72
2022/12/08 11:09:24;;;;;;;14.13;3.00;;;4.40;99.90;;;;;;5032453;28;20038;-70
2022/12/08 11:11:58;;;;;;;11.77;2.45;;;4.40;99.90;;;;;;5022261;28;20056;-70
2022/12/08 11:14:35;;;;;;;10.70;2.83;;;4.50;99.90;;;;;;5034724;28;20491;-70
2022/12/08 11:17:35;;;;;;;13.20;3.00;;;4.50;99.90;;;;;;5037368;28;20046;-70
2022/12/08 11:20:09;;;;;;;8.80;2.85;;;4.50;99.90;;;;;;5021390;28;20588;-70
2022/12/08 11:22:44;;;;;;;8.95;3.22;;;4.60;99.90;;;;;;5020329;28;20064;-70
2022/12/08 11:25:21;;;;;;;11.10;3.08;;;4.50;99.90;;;;;;5036965;28;20048;-69
2022/12/08 11:27:48;;;;;;;9.25;2.72;;;4.50;99.90;;;;;;5035323;28;20052;-69
2022/12/08 11:30:26;;;;;;;8.75;2.40;;;4.50;99.90;;;;;;5037163;28;20042;-71
2022/12/08 11:33:15;;;;;;;12.77;3.10;;;4.60;99.90;;;;;;5037072;28;20091;-70
2022/12/08 11:35:47;;;;;;;11.07;2.47;;;4.60;99.90;;;;;;5018994;28;20052;-70
2022/12/08 11:38:15;;;;;;;7.72;2.45;;;4.60;99.90;;;;;;5037182;28;20041;-70
2022/12/08 11:40:43;;;;;;;9.73;2.90;;;4.70;99.90;;;;;;5037072;28;20065;-70
2022/12/08 11:43:33;;;;;;;11.10;2.80;;;4.70;99.90;;;;;;5036880;28;20048;-70
2022/12/08 11:46:10;;;;;;;8.43;2.90;;;4.70;99.90;;;;;;5037013;28;20366;-70
2022/12/08 11:48:58;;;;;;;10.68;3.03;;;4.70;99.90;;;;;;5036875;28;20133;-71
2022/12/08 11:51:35;;;;;;;12.23;3.40;;;4.70;99.90;;;;;;5037445;28;20056;-69
2022/12/08 11:54:05;;;;;;;6.78;2.90;;;4.60;99.90;;;;;;5018944;28;20053;-69
2022/12/08 11:56:43;;;;;;;9.38;2.85;;;4.50;99.90;;;;;;5019815;28;20052;-69
2022/12/08 11:59:31;;;;;;;7.28;2.20;;;4.40;99.90;;;;;;5037142;28;20434;-69
2022/12/08 12:01:59;;;;;;;6.25;2.10;;;4.40;99.90;;;;;;5037243;28;20052;-69
2022/12/08 12:04:36;;;;;;;5.53;2.03;;;4.30;99.90;;;;;;5036891;28;20453;-70
2022/12/08 12:07:39;;;;;;;10.45;2.08;;;4.30;99.90;;;;;;5019626;28;20046;-71
2022/12/08 12:10:19;;;;;;;5.82;1.83;;;4.20;99.90;;;;;;5037063;28;20041;-70
2022/12/08 12:13:05;;;;;;;5.90;1.85;;;4.30;99.90;;;;;;5036379;28;20146;-69
2022/12/08 12:15:58;;;;;;;6.05;1.90;;;4.20;99.90;;;;;;5005982;28;20069;-70
2022/12/08 12:18:29;;;;;;;6.20;1.90;;;4.30;99.90;;;;;;5036408;28;20171;-70
2022/12/08 12:21:25;;;;;;;8.20;1.90;;;4.30;99.90;;;;;;5036466;28;20096;-70
2022/12/08 12:24:15;;;;;;;5.57;1.80;;;4.30;99.90;;;;;;5030648;28;20115;-70
2022/12/08 12:26:56;;;;;;;6.75;2.10;;;4.40;99.90;;;;;;5035790;28;20045;-71
2022/12/08 12:29:24;;;;;;;7.72;2.13;;;4.50;99.90;;;;;;5036264;28;20079;-70
2022/12/08 12:32:00;;;;;;;9.20;3.03;;;4.50;99.90;;;;;;5003308;28;20037;-69
2022/12/08 12:34:34;;;;;;;6.25;2.40;;;4.50;99.90;;;;;;5036670;28;20049;-70
2022/12/08 12:37:13;;;;;;;6.85;2.10;;;4.60;99.90;;;;;;5036316;28;20033;-70
2022/12/08 12:40:01;;;;;;;11.90;2.40;;;4.60;99.90;;;;;;5036618;28;20049;-70
2022/12/08 12:42:37;;;;;;;6.25;2.00;;;4.60;99.90;;;;;;5036353;28;20040;-71
2022/12/08 12:45:30;;;;;;;5.75;2.10;;;4.50;99.90;;;;;;5036577;28;20393;-69
2022/12/08 12:47:55;;;;;;;5.32;1.90;;;4.50;99.90;;;;;;5013634;28;20049;-70
2022/12/08 12:50:41;;;;;;;8.27;2.65;;;4.40;99.90;;;;;;5036398;28;20043;-69
2022/12/08 12:53:18;;;;;;;6.72;2.15;;;4.30;99.90;;;;;;5018850;28;20063;-70
2022/12/08 12:55:44;;;;;;;15.43;2.70;;;4.20;99.90;;;;;;5036339;28;20099;-70
2022/12/08 12:58:20;;;;;;;7.68;2.75;;;4.10;99.90;;;;;;5034983;28;20049;-70
2022/12/08 13:00:45;;;;;;;8.73;3.10;;;4.00;99.90;;;;;;5030274;28;20465;-70
2022/12/08 13:03:15;;;;;;;8.57;2.40;;;3.90;99.90;;;;;;5035790;28;20044;-69
2022/12/08 13:05:51;;;;;;;10.55;2.90;;;3.90;99.90;;;;;;5035291;28;20045;-69
2022/12/08 13:08:26;;;;;;;10.38;2.47;;;3.80;99.90;;;;;;5035550;28;20370;-69
2022/12/08 13:11:05;;;;;;;7.75;2.85;;;3.90;99.90;;;;;;5020688;28;20099;-69
2022/12/08 13:13:32;;;;;;;6.70;2.63;;;3.80;99.90;;;;;;5035027;28;20109;-70
2022/12/08 13:16:20;;;;;;;7.10;2.88;;;3.80;99.90;;;;;;5035348;28;20042;-70
2022/12/08 13:18:49;;;;;;;12.07;3.50;;;3.80;99.90;;;;;;5022221;28;20057;-70
2022/12/08 13:21:20;;;;;;;6.72;2.60;;;3.90;99.90;;;;;;5018003;28;20476;-69
2022/12/08 13:24:08;;;;;;;6.32;2.70;;;3.80;99.90;;;;;;5035062;28;20056;-70